Prairie Center, Illinois
Current Conditions -  °F | °C
As of 1:55 AM on Friday 24 Oct 2014 (Local Time) from KVYS Reporting Station
Scattered Clouds Scattered Clouds  
Wind Chill: 11°   Ceiling: Unl
Heat Index: 11°   Visibility: 10mi
Dew Point:   Wind: 5mph
Humidity: 79%   Direction: 230°SW
Pressure: 30.05"   Gusts: NA
Location:  41.4349°N, 88.8687°W
Report Text: KVYS 240655Z AUTO 23004KT 10SM SCT032 11/08 A3005 RMK AO2 T01110075
Loading
Personal Weather Stations






























Interactive Weather Map
Tropical Storm Tracking
New forecast layout! Learn more

10-Day Weather Forecast

Advertisements
Track Severe Weather on mobile